International TAF

Brunei, China, Hong Kong, Malaysia, Philippines, Taiwan

The availability of aerodrome forecasts from overseas locations is dependent on the regular international exchange of data. Some locations may at times be absent. If this problem persists, please advise webav@bom.gov.au

 back to top

ZSPD 19/02/2019 UTC

TAF ZSPD 192114Z 2000/2024 01004MPS 6000 BKN010 TX08/2006Z
TN04/2020Z
BECMG 2002/2004 BKN015

WIDD 19/02/2019 UTC

TAF WIDD 192300Z 2000/2024 04008KT 9999 FEW014

WAMM 19/02/2019 UTC

TAF WAMM 192300Z 2000/2106 05008KT 9999 SCT020
PROB30 TEMPO 2002/2006 5000 -RA SCT018
BECMG 2010/2012 06003KT 9999 FEW022

WBSB 19/02/2019 UTC

TAF WBSB 192250Z 2000/2106 20003KT 9999 FEW015
BECMG 2003/2005 35010KT SCT016 FEW017CB

WBKK 19/02/2019 UTC

TAF WBKK 192300Z 2000/2100 30005KT 9999 FEW014
BECMG 2012/2014 12005KT

WBGG 19/02/2019 UTC

TAF WBGG 192300Z 2000/2100 VRB04KT 9999 SCT019
TEMPO 2006/2009 03008KT 4000 SHRA FEW015CB

VHHH 19/02/2019 UTC

TAF VHHH 191700Z 1918/2024 08010KT 8000 FEW015 SCT030 TX27/2006Z
TN21/1922Z TN22/2022Z TEMPO 1918/2001 4000 BR SHRA BECMG
2000/2002 14010KT TEMPO 2003/2009 24010KT TEMPO 2009/2015
VRB05KT TEMPO 2020/2024 2500 BR

VMMC 19/02/2019 UTC

TAF AMD VMMC 192137Z 1921/2024 12008KT 8000 FEW010 SCT025
TEMPO 1921/1924 0400 FG VV001
TEMPO 2000/2002 1400 BR
BECMG 1923/2002 18010KT
TEMPO 2002/2012 3500 BR

ZGSZ 19/02/2019 UTC

TAF ZGSZ 191918Z 2000/2024 12004MPS 6000 BKN030 TX25/2006Z
TN20/2022Z
TEMPO 2004/2010 21004MPS

RCTP 19/02/2019 UTC

TAF RCTP 192300Z 2000/2106 02005KT 6000 FEW012 SCT020 BKN032
TEMPO 2000/2002 4000 BR SCT006 BKN011
TEMPO 2002/2008 33005KT FEW008 BKN016 BKN040
BECMG 2010/2012 12005KT 5000 BR FEW008 BKN016 BKN040
TEMPO 2012/2018 2400 BR SCT004 BKN007
TEMPO 2018/2024 VRB03KT 3200 BR SCT006 BKN011
BECMG 2100/2102 31005KT
TEMPO 2102/2106 6000 NSW

RCKH 19/02/2019 UTC

TAF RCKH 192300Z 2000/2106 28008KT 8000 FEW015 SCT030
BECMG 2009/2011 34005KT
TEMPO 2018/2024 06005KT 4000 BR
BECMG 2101/2103 27008KT

ZGGG 19/02/2019 UTC

TAF ZGGG 192102Z 2000/2024 12003MPS 8000 BKN030 TX25/2007Z
TN18/2000Z

ZBAA 19/02/2019 UTC

TAF ZBAA 192130Z 2000/2024 36004MPS 6000 NSC TX09/2006Z TNM05/21Z

ZSSS 19/02/2019 UTC

TAF ZSSS 191912Z 2000/2024 01004MPS 6000 BKN010 TX09/2006Z
TN04/2021Z
BECMG 2003/2004 BKN015

ZBTJ 19/02/2019 UTC

TAF ZBTJ 191910Z 2000/2024 33004MPS 5000 HZ NSC TX09/2007Z
TNM05/22Z

ZBYN 19/02/2019 UTC

TAF ZBYN 191901Z 2000/2024 21004MPS 5000 BR NSC TX07/2007Z
TNM10/22Z

ZSHC 19/02/2019 UTC

TAF ZSHC 191911Z 2000/2024 09003MPS 3000 -RA BR SCT010 BKN020
TX08/2006Z TN05/2021Z TEMPO 2000/2003 2000 SHRA

ZSOF 19/02/2019 UTC

TAF ZSOF 191901Z 2000/2024 09003MPS 3000 BR BKN020 TX05/2007Z
TN01/2021Z TEMPO 2004/2010 2400 -RA BR BKN005

ZWWW 19/02/2019 UTC

TAF ZWWW 192124Z 2000/2024 18002MPS 1400 BR NSC TXM05/09Z TNM14/23Z
BECMG 2004/2005 36002MPS 2500 BR BECMG 2013/2014 18002MPS 1400 BR

ZYTL 19/02/2019 UTC

TAF ZYTL 191903Z 2000/2024 28004MPS 5000 BR SCT033 TX05/2006Z
TNM02/21Z

RPLL 19/02/2019 UTC

TAF RPLL 192300Z 2000/2106 10008KT 9999 FEW025 TX32/2005Z TN23/2021Z
TEMPO 2003/2009 11017KT FEW025 SCT100 TEMPO 2009/2015 10014KT

RPVM 19/02/2019 UTC

TAF RPVM 192300Z 2000/2106 04008KT 9999 FEW020 SCT300
TEMPO 2000/2006 07012KT FEW020 BKN300 TEMPO 2006/2012 FEW020

RPMZ 19/02/2019 UTC

TAF RPMZ 192300Z 2000/2024 09006KT 9999 FEW017
TEMPO 2000/2006 09011KT TEMPO 2006/2012 27007KT FEW017 SCT090

Australian International

The availability of aerodrome forecasts from overseas locations is dependent on the regular international exchange of data. Some locations may at times be absent. If this problem persists, please advise webav@bom.gov.au

 back to top

YMML 19/02/2019 UTC

TAF YMML 192303Z 2000/2106
22014KT 9999 BKN040
FM200800 17012KT 9999 -SHRA SCT018 BKN045
FM201300 23010KT 9999 -SHRA SCT018 SCT045
FM202100 21010KT 9999 BKN035
FM210100 17013KT 9999 SCT035
RMK
T 18 22 21 18 Q 1016 1015 1014 1016

YSSY 19/02/2019 UTC

TAF AMD YSSY 192103Z 1921/2024
19010KT 9999 -SHRA SCT010 BKN020
FM200100 16018KT 9999 -SHRA FEW010 BKN020
FM200900 13010KT 9999 -SHRA BKN020
INTER 1921/2022 5000 SHRA BKN010
RMK
T 20 23 23 23 Q 1011 1012 1011 1011

YBBN 19/02/2019 UTC

TAF AMD YBBN 192311Z 2000/2106
14010KT 9999 SCT030
FM200200 10014KT CAVOK
FM200900 13008KT 9999 SCT018
FM201500 20008KT 9999 SCT012 BKN020
FM202200 15014KT 9999 SCT020 SCT035
FM210200 14018KT 9999 SCT035
TEMPO 2016/2022 9999 NSW BKN012
RMK
T 29 30 29 26 Q 1009 1006 1005 1007

YSCB 19/02/2019 UTC

TAF AMD YSCB 192303Z 1923/2024
35006KT 9999 BKN020
BECMG 2000/2001 35008KT 9999 BKN030
FM200200 32010KT 9999 FEW045
FM200800 08015G25KT 9999 FEW030
BECMG 2010/2012 10006KT 9999 BKN020
BECMG 2023/2024 08006KT 9999 BKN030
RMK
T 18 24 27 25 Q 1014 1013 1011 1011

YBCS 19/02/2019 UTC

TAF AMD YBCS 191901Z 1919/2018
26012KT CAVOK
RMK FM191900 MOD TURB BLW 5000FT TILL200800
T 27 29 33 36 Q 1006 1007 1007 1004

YBAS 19/02/2019 UTC

TAF YBAS 192314Z 2000/2024
11014KT CAVOK
FM200300 11010KT CAVOK
RMK
T 30 35 38 37 Q 1016 1015 1012 1012

YBMA 19/02/2019 UTC

TAF YBMA 192221Z 2000/2012
12006KT CAVOK
RMK
T 35 40 41 38 Q 1012 1010 1007 1008

YPAD 19/02/2019 UTC

TAF YPAD 191724Z 1918/2024
15008KT 9999 BKN035
FM200000 22012KT 9999 SCT040
FM200800 15008KT 9999 SCT040
RMK
T 16 16 20 21 Q 1016 1017 1018 1018

YPDN 19/02/2019 UTC

TAF AMD YPDN 192110Z 1921/2024
27006KT 9999 SCT020
FM200000 27014KT 9999 SCT035
FM201000 27008KT 9999 FEW020
TEMPO 1921/1923 VRB20G35KT 1000 TSRA BKN010 SCT020CB
RMK
T 25 30 32 32 Q 1014 1013 1012 1009

YPTN 19/02/2019 UTC

TAF AMD YPTN 191721Z 1917/2018
32008KT 8000 -RA FEW040
FM191900 31005KT 9999 NSW BKN015
FM192300 30008KT 9999 SCT040
TEMPO 1917/1918 VRB20G40KT 1000 TSRA BKN010 SCT030CB
RMK
T 23 25 28 32 Q 1013 1011 1013 1012

YPPH 19/02/2019 UTC

TAF AMD YPPH 192109Z 1921/2024
06007KT CAVOK
FM200500 25014KT CAVOK
FM201400 28007KT 9999 BKN008
RMK
T 21 24 32 32 Q 1011 1012 1010 1010

YPLM 19/02/2019 UTC

TAF YPLM 192310Z 2000/2024
21012KT CAVOK
FM200100 16010KT CAVOK
FM200400 VRB05KT CAVOK
FM200800 23018KT CAVOK
FM201600 18012KT CAVOK
RMK
T 26 34 38 36 Q 1012 1012 1009 1008

YCAR 19/02/2019 UTC

TAF YCAR 192029Z 1922/2011
17014KT CAVOK
FM200500 21020KT CAVOK
RMK
T 22 25 27 28 Q 1013 1014 1014 1012

YPCC 19/02/2019 UTC

TAF YPCC 192311Z 2000/2024
12012KT 9999 SCT020
RMK
T 27 29 30 29 Q 1014 1015 1013 1012

YPPD 19/02/2019 UTC

TAF YPPD 192310Z 2000/2024
33006KT 9999 SCT018
FM200400 33016KT CAVOK
FM201600 30008KT 9999 SCT018
RMK
T 31 33 33 31 Q 1011 1011 1009 1008

YBTL 19/02/2019 UTC

TAF YBTL 192308Z 2000/2024
22008KT CAVOK
FM200400 03010KT 9999 FEW045
FM201000 VRB05KT 9999 FEW018
RMK
T 33 36 36 31 Q 1006 1004 1002 1002

YMHB 19/02/2019 UTC

TAF YMHB 192302Z 2000/2024
29014KT 9999 SCT040
FM200300 26015G25KT 9999 -SHRA SCT030 BKN040
FM200800 31010KT 9999 SCT030
FM201200 31006KT 9999 SCT020 BKN035
RMK FM200000 MOD TURB BLW 5000FT
T 19 18 18 15 Q 1006 1007 1008 1010

YPXM 19/02/2019 UTC

TAF YPXM 192311Z 2000/2024
15005KT 9999 SCT018
RMK
T 25 28 28 27 Q 1015 1015 1014 1012

New Zealand

The availability of aerodrome forecasts from overseas locations is dependent on the regular international exchange of data. Some locations may at times be absent. If this problem persists, please advise webav@bom.gov.au

 back to top

NZAA 19/02/2019 UTC

TAF NZAA 192301Z 2000/2100 22008KT 9999 SCT050
FM200200 02010KT 9999 -SHRA FEW020TCU BKN030
BECMG 2010/2012 VRB02KT
BECMG 2020/2022 02010KT

NZWN 19/02/2019 UTC

TAF NZWN 192301Z 2000/2100 36020G30KT 9999 BKN025
BECMG 2010/2012 36015KT
TEMPO 2014/2020 BKN014

NZCH 19/02/2019 UTC

TAF NZCH 192309Z 2000/2100 20010KT CAVOK
FM200200 08012KT 9999 SCT040
BECMG 2011/2013 VRB02KT
PROB30 2012/2019 0500 FG

YLHI 19/02/2019 UTC

TAF AMD YLHI 191746Z 1918/2018
12010KT 9999 -SHRA SCT015 BKN025
FM200000 12014KT 9999 -SHRA SCT015 SCT025
FM200600 11014KT 9999 -DZ SCT010 BKN015
TEMPO 1918/2000 4000 SHRA BKN010
TEMPO 2008/2018 3000 DZ BKN010
RMK
T 24 26 27 28 Q 1008 1010 1010 1008

YSNF 19/02/2019 UTC

TAF AMD YSNF 191745Z 1918/2018
09014KT 8000 -DZ BKN005
TEMPO 1918/2018 2000 DZ OVC002
RMK FM191800 MOD TURB BLW 5000FT
T 23 25 26 26 Q 1009 1010 1010 1009

Indonesia, Malaysia, Myanmar, Singapore, Thailand, Vietnam

The availability of aerodrome forecasts from overseas locations is dependent on the regular international exchange of data. Some locations may at times be absent. If this problem persists, please advise webav@bom.gov.au

 back to top

WADA

TAF not available.

WAAA 19/02/2019 UTC

TAF WAAA 192300Z 2000/2106 10005KT 9999 SCT018
BECMG 2001/2003 32010KT
TEMPO 2007/2009 5000 -TSRA FEW017CB
BECMG 2011/2013 10005KT 8000

WIII 19/02/2019 UTC

TAF WIII 192300Z 2000/2106 33010KT 9999 FEW020

WIHH 19/02/2019 UTC

TAF WIHH 192300Z 2000/2100 12008KT 6000 SCT020
TEMPO 2007/2010 02010KT 4000 -TSRA FEW016CB BKN017
BECMG 2012/2014 18005KT 5000 HZ FEW021

WIMM 19/02/2019 UTC

TAF WIMM 192300Z 2000/2100 21004KT 5000 HZ SCT017
BECMG 2002/2004 03010KT 9999 NSW
BECMG 2010/2012 VRB05KT 4500 HZ

WIPP 19/02/2019 UTC

TAF WIPP 192300Z 2000/2024 02010KT 9999 SCT010
TEMPO 2007/2011 3000 TSRA FEW010CB BKN010
TEMPO 2020/2024 1500 BR

WIKD

TAF not available.

WARR 19/02/2019 UTC

TAF WARR 192300Z 2000/2100 12005KT 9999 FEW020
TEMPO 2005/2009 34015KT 3000 TSRA SCT018CB
BECMG 2015/2017 27005KT 4000 BR

WADD 19/02/2019 UTC

TAF WADD 192300Z 2000/2100 VRB05KT 9999 SCT016
TEMPO 2006/2009 6000 -TSRA FEW015CB BKN015
TEMPO 2015/2018 5000 RA BKN015

WRRA

TAF not available.

WALL 19/02/2019 UTC

TAF WALL 192300Z 2000/2106 35008KT 9999 FEW020 BECMG 2003/2005 06005KT SCT018 TEMPO
2005/2008 FEW018CB SCT018

WSSS 19/02/2019 UTC

TAF WSSS 192300Z 2000/2106 05008KT 9999 SCT020

WSAP 19/02/2019 UTC

TAF WSAP 192300Z 2000/2106 05008KT 9999 SCT020

WMKK 19/02/2019 UTC

TAF WMKK 192300Z 2000/2106 VRB03KT 9999 FEW017CB
PROB30 TEMPO 2007/2011 35010KT 3000 TSRA FEW015CB SCT018
BECMG 2012/2014 08005KT
BECMG 2100/2102 VRB03KT

WMSA 19/02/2019 UTC

TAF WMSA 192300Z 2000/2100 VRB02KT 9000 FEW017CB
PROB30 TEMPO 2007/2011 30008KT 3000 TSRA FEW015CB SCT018
BECMG 2012/2014 26005KT FEW025
BECMG 2016/2018 VRB02KT

WMKP 19/02/2019 UTC

TAF WMKP 192300Z 2000/2100 01005KT 9000 FEW025 SCT140 BKN270
TEMPO 2005/2009 22010KT

WMKJ 19/02/2019 UTC

TAF WMKJ 192300Z 2000/2100 06005KT 9999 FEW017CB
PROB30 TEMPO 2007/2011 16008KT 4000 TSRA FEW016CB SCT018
BECMG 2012/2014 VRB03KT FEW022

WMKD 19/02/2019 UTC

TAF WMKD 192300Z 2000/2100 02005KT 9999 FEW020
PROB30 TEMPO 2003/2006 8000 -RA FEW017CB

WMKB 19/02/2019 UTC

TAF WMKB 192300Z 2000/2100 05005KT 9000 FEW020
BECMG 2004/2006 29010KT

VTBD 19/02/2019 UTC

TAF VTBD 191700Z 1918/2024 19005KT 9999 FEW020
BECMG 1920/1922 13005KT
BECMG 2001/2003 19008KT

VTBS 19/02/2019 UTC

TAF VTBS 191700Z 1918/2024 19005KT 9999 FEW030
BECMG 1921/1923 13005KT
BECMG 2001/2003 19008KT

VTBU 19/02/2019 UTC

TAF VTBU 191700Z 1918/2018 17004KT 8000 FEW020
BECMG 2002/2004 18008KT 9999

VTCC 19/02/2019 UTC

TAF VTCC 191700Z 1918/2024 24005KT 9999 FEW035

VTSP 19/02/2019 UTC

TAF VTSP 191700Z 1918/2024 00000KT 9999 FEW020
BECMG 2000/2002 08006KT
BECMG 2006/2008 28008KT
BECMG 2016/2018 00000KT

VTSS 19/02/2019 UTC

TAF VTSS 191700Z 1918/2018 00000KT 9999 FEW020
BECMG 2002/2004 06010KT
BECMG 2014/2016 00000KT

VVTS 19/02/2019 UTC

TAF VVTS 191700Z 1918/2024 14006KT 9999 SCT017

VDPP 19/02/2019 UTC

TAF VDPP 191700Z 1918/2012 16007KT 9999 FEW017

VVNB 19/02/2019 UTC

TAF VVNB 191700Z 1918/2018 11007KT 4000 BR SCT010
BECMG 1920/1921 2500 BR
TEMPO 1922/2001 1200 BR BKN005
BECMG 2002/2003 6000 NSW
BECMG 2016/2017 4000 BR

VYYY 19/02/2019 UTC

TAF VYYY 191700Z 1918/2018 32005KT 7000 NSC
TEMPO 1918/1924 27006KT 5000 HZ

South America

The availability of aerodrome forecasts from overseas locations is dependent on the regular international exchange of data. Some locations may at times be absent. If this problem persists, please advise webav@bom.gov.au

 back to top

SAEZ 19/02/2019 UTC

TAF SAEZ 191700Z 1918/2018 29010KT 9999 SCT045 TX36/2018Z
TN22/2009Z
BECMG 1921/1923 33005KT
BECMG 2004/2006 CAVOK
BECMG 2012/2014 34010KT 9999 FEW025 SCT045 PROB30 2016/2018
03018KT 7000 RA BKN025 FEW045TCU

SAVC 19/02/2019 UTC

TAF SAVC 191700Z 1918/2018 32030G40KT CAVOK TX26/1920Z TN10/2011Z
PROB40 TEMPO 1920/2003 27035G50KT BECMG 2005/2007 27025G40KT

SCIE 19/02/2019 UTC

TAF SCIE 192230Z 2000/2024 23008KT 9999 SCT025 BKN070 TX22/2018Z
TN14/2011Z
BECMG 2004/2006 22004KT SCT010 BKN025
TEMPO 2008/2012 5000 BR OVC008
BECMG 2016/2018 SCT020 BKN200
BECMG 2018/2020 CAVOK

SACO 19/02/2019 UTC

TAF SACO 191700Z 1918/2018 02005KT 9999 FEW030
TX37/2018Z TN20/2010Z
BECMG 1900/1903 34005KT CAVOK

SCIP 19/02/2019 UTC

TAF SCIP 191622Z 1918/2018 11010KT 9999 SCT020 SCT060 BKN090
TX24/1919Z TN21/2010Z
TEMPO 1918/1921 10005KT 8000 -SHRA
TEMPO 2004/2010 10005KT 8000 -SHRA
BECMG 2014/2016 FEW020 SCT040

SAZM 19/02/2019 UTC

TAF SAZM 191700Z 1918/2018 09010KT 9999 BKN029 TX34/2018Z
TN17/2010Z
TEMPO 2000/2003 05010KT 8000 NSC
BECMG 2006/2009 34020KT CAVOK
BECMG 2015/2018 25015KT

SAME 19/02/2019 UTC

TAF SAME 192300Z 2000/2024 20005KT 9999 FEW040 TN22/2010Z
TX35/2020Z
BECMG 2010/2012 18005KT 9999 FEW045
BECMG 2020/2022 20005KT 9999 FEW040 FEW050CB

SUMU 19/02/2019 UTC

TAF SUMU 191725Z 1918/2018 24005KT 9999 SCT033 TX33/2018Z TN21/2009Z
BECMG 1922/1924 08010KT CAVOK BECMG 2006/2008 32010KT

SAZN 19/02/2019 UTC

TAF SAZN 191700Z 1918/2018 25010KT 9999 SCT040
TX34/1920Z TN14/2010Z
BECMG 1919/1921 25020G30KT
BECMG 2003/2005 27005KT CAVOK

SCTE 19/02/2019 UTC

TAF SCTE 191642Z 1918/2018 25005KT 9999 FEW030 TX18/1919Z
TN09/2010Z
BECMG 1920/1922 CAVOK
BECMG 1923/2001 33004KT
BECMG 2005/2007 01006KT BKN050
BECMG 2011/2013 01012KT SCT020 BKN040
BECMG 2014/2016 6000 -RA SCT015 OVC025

SCCI 19/02/2019 UTC

TAF SCCI 191639Z 1918/2018 24015KT 9999 SCT038 TN05/2008Z
TX12/1919Z
BECMG 1918/1920 29025G35KT 9000 -SHRA
TEMPO 1919/2001 30033G45KT 6000 SHRA SCT015 BKN025
BECMG 2001/2003 27020G30KT SCT030 BKN045
BECMG 2009/2011 25025G35KT
TEMPO 2011/2014 23033G45KT

SAWG 19/02/2019 UTC

TAF SAWG 191700Z 1918/2018 27025G40KT 9999 DZ SCT030 OVC060
TX16/1919Z TN06/2011Z
BECMG 1919/1921 29040G60KT 9999 SCT030
BECMG 2001/2003 27035G50KT 9999 SHRA SCT020 OVC040

SAAR 19/02/2019 UTC

TAF SAAR 191700Z 1918/2018 32005KT 9999 SCT045 TX37/2018Z
TN23/2008Z
BECMG 1918/1920 01005KT 9999 SCT045 FEW045TCU
BECMG 2004/2006 33005KT CAVOK PROB30 2009/2011 5000 BR
BECMG 2014/2016 36010KT

SAZS 19/02/2019 UTC

TAF SAZS 191700Z 1918/2018 32020G35KT CAVOK
TX23/1919Z TN05/2011Z
BECMG 1923/2001 29020KT
BECMG 2004/2006 29010KT
BECMG 2010/2012 30020KT 9999 SCT030
BECMG 2015/2017 32020G35KT

SCEL 19/02/2019 UTC

TAF SCEL 192230Z 2000/2024 20015KT CAVOK TX29/2019Z TN15/2011Z
BECMG 2000/2002 16007KT
TEMPO 2008/2013 VRB02KT 0800 BCFG BKN005
BECMG 2018/2020 19012KT

SAWH 19/02/2019 UTC

TAF SAWH 191700Z 1918/2018 23010KT 9999 BKN035 OVC090 TX14/1917Z
TN00/2009Z
TEMPO 1919/1921 32015KT 9999 SHRA SCT030TCU OVC050
BECMG 2001/2003 VRB05KT 8000 RABR SCT020 OVC045

Guam, Japan, Korea

The availability of aerodrome forecasts from overseas locations is dependent on the regular international exchange of data. Some locations may at times be absent. If this problem persists, please advise webav@bom.gov.au

 back to top

PGUA 19/02/2019 UTC

TAF PGUA 191800Z 1918/2024 05020G25KT 9999 SCT006 BKN013
QNH2996INS
TEMPO 1918/1924 4800 -SHRA TX29/2004Z TN23/1920Z

PGUM 19/02/2019 UTC

TAF PGUM 191754Z 1918/2024 04012G18KT P6SM VCSH SCT024 BKN050
FM192300 05018G28KT P6SM VCSH SCT024 SCT035
FM200900 05015KT P6SM VCSH FEW024 SCT035

PGSN 19/02/2019 UTC

TAF PGSN 191754Z 1918/2018 03015G25KT P6SM VCSH SCT027 BKN050
FM192300 04020G30KT P6SM VCSH SCT025 BKN045

PTRO 19/02/2019 UTC

TAF PTRO 191754Z 1918/2018 05009KT P6SM VCSH SCT016 BKN300
FM200000 04012G20KT P6SM VCSH SCT016 SCT120

RJOO

19/02/2019 UTC

TAF AMD RJOO 192023Z 1920/2100 32005KT 9999 FEW015 BKN030 TEMPO
1920/2000 3000 BR FEW005 BKN008 BKN015

RJOB 19/02/2019 UTC

TAF AMD RJOB 192032Z 1920/2100 27010KT 9999 FEW020 SCT045

RJGG 19/02/2019 UTC

TAF AMD RJGG 191804Z 1918/2100 32012KT 9999 FEW008 SCT020 BECMG
2004/2006 32022KT TEMPO 2006/2012 32028G38KT

RJCC 19/02/2019 UTC

TAF AMD RJCC 192236Z 1922/2100 35010KT 3000 BR FEW001 BKN003 BECMG
1923/2001 9999 NSW FEW020 BKN040 BECMG 2012/2015 16005KT
TEMPO 2012/2100 3000 -SHSN BR

RJSS 19/02/2019 UTC

TAF AMD RJSS 192041Z 1920/2100 06006KT 9999 FEW010 SCT030 BKN050
TEMPO 1920/1923 3000 BR FEW002 BKN005 BECMG 2012/2015
28008KT

RJFK 19/02/2019 UTC

TAF RJFK 191708Z 1918/2100 32013KT 9999 FEW015 BKN030 TEMPO
1918/1922 FEW005 BKN008 BKN010 TEMPO 2003/2009 31017G27KT
BECMG 2021/2100 13003KT

RJAA 19/02/2019 UTC

TAF AMD RJAA 192004Z 1920/2100 35004KT 3500 BR FEW030 TEMPO
1920/1922 1800 BR FEW003 BKN004 BECMG 1922/2000 9999 NSW
BECMG 2002/2004 09009KT BECMG 2009/2012 30013KT TEMPO
2012/2015 31016G28KT 3500 SHRA

RJBB 19/02/2019 UTC

TAF RJBB 191705Z 1918/2100 30012KT 9999 FEW008 BKN030 TEMPO
1918/1921 4000 BR BECMG 2018/2021 35012KT

RJTT 19/02/2019 UTC

TAF RJTT 191706Z 1918/2100 35005KT 7000 FEW006 BKN012 BECMG
2001/2003 08004KT BECMG 2009/2012 33016KT TEMPO 2012/2015
33022G32KT

RJFF 19/02/2019 UTC

TAF RJFF 191706Z 1918/2100 31010KT 9999 FEW010 SCT015 BKN020 BECMG
2012/2015 14003KT

RJFT 19/02/2019 UTC

TAF AMD RJFT 192107Z 1921/2100 28011KT 9999 FEW030 BECMG 2009/2012
01006KT

RJFU 19/02/2019 UTC

TAF RJFU 191705Z 1918/2100 32009KT 9999 FEW020 BKN040 BECMG
2012/2015 13005KT

ROAH 19/02/2019 UTC

TAF ROAH 191707Z 1918/2100 04005KT 9999 FEW015 BKN040 BECMG
2015/2018 12010KT

RKSS 19/02/2019 UTC

TAF RKSS 192300Z 2000/2106 28006KT 7000 BKN030
TX05/2006Z TNM06/2022Z TX07/2106Z
PROB30 TEMPO 2000/2001 -RASN
BECMG 2003/2004 34010G25KT SCT030
BECMG 2011/2012 28006KT NSC
BECMG 2014/2015 35005KT 4000 BR
BECMG 2022/2023 30006KT 7000 NSW

RKSI 19/02/2019 UTC

TAF RKSI 192300Z 2000/2106 31007KT 7000 BKN030 BKN120
TX04/2005Z TNM03/2021Z TX05/2105Z
PROB30 TEMPO 2000/2002 -RA
BECMG 2002/2003 25012KT SCT030
BECMG 2009/2010 32010KT NSC
BECMG 2013/2014 03006KT
BECMG 2101/2102 24006KT

RKSM 19/02/2019 UTC

TAF AMD RKSM 192110Z 1918/2024 27006KT 9999 SCT015 BKN030
BECMG 2006/2007 33006KT 9000 BR SCT030 TX05/2006Z
TNM04/2021Z

RKPK 19/02/2019 UTC

TAF RKPK 192300Z 2000/2106 33010KT 9999 SCT030 SCT200
TX11/2006Z TNM02/2021Z
BECMG 2008/2009 33006KT

RKPC 19/02/2019 UTC

TAF RKPC 192300Z 2000/2106 35008KT 9999 SCT030 BKN150
TX08/2003Z TN05/2020Z TX09/2106Z

Indonesia, Pakistan, Singapore, India, Sri Lanka, United Arab Emirates

The availability of aerodrome forecasts from overseas locations is dependent on the regular international exchange of data. Some locations may at times be absent. If this problem persists, please advise webav@bom.gov.au

 back to top

WIII 19/02/2019 UTC

TAF WIII 192300Z 2000/2106 33010KT 9999 FEW020

WSSS 19/02/2019 UTC

TAF WSSS 192300Z 2000/2106 05008KT 9999 SCT020

VCBI 19/02/2019 UTC

TAF VCBI 191700Z 1918/2024 28005KT 9999 FEW018
TX33/2007Z TN24/2000Z
TEMPO 2000/2002 7000

VECC 19/02/2019 UTC

TAF VECC 191700Z 1918/2024 18006KT 2600 HZ NSC
BECMG 2000/2002 00000KT 1200 BR
BECMG 2003/2005 20005KT 2500 HZ
BECMG 2005/2007 3500 HZ
BECMG 2015/2017 18005KT 2600 HZ

VOMM 19/02/2019 UTC

TAF VOMM 191700Z 1918/2024 16005KT 6000 SCT018
BECMG 1921/1923 00000KT 5000 BR
TEMPO 2000/2003 2500 BR
BECMG 2003/2005 12005KT 6000
BECMG 2006/2008 09010G20KT
BECMG 2015/2016 09010KT
BECMG 2018/2019 16005KT
BECMG 2021/2023 00000KT 5000 BR

VOTV 19/02/2019 UTC

TAF VOTV 192300Z 2000/2106 07005KT 3000 HZ FEW015 TEMPO 2000/2002
2000 BR BECMG 2005/2006 33010KT 6000 FEW015 TEMPO 2010/2014 FEW015
FEW025CB BECMG 2016/2017 09005KT 4000 HZ FEW015 TEMPO 2023/2102 2000
BR BECMG 2105/2106 32010KT 6000 FEW015

VABB 19/02/2019 UTC

TAF VABB 191700Z 1918/2024 VRB03KT 2500 HZ FU NSC
BECMG 2001/2003 04005KT 2000 HZ FU
BECMG 2006/2008 28008KT 3000 FU
BECMG 2010/2012 5000 FU
BECMG 2014/2016 34006KT 4000 FU
BECMG 2018/2020 VRB03KT 2500 FU

VAAH 19/02/2019 UTC

TAF VAAH 191700Z 1918/2024 04003KT 4000 FU FEW080
BECMG 2001/2003 09004KT 2000 HZ FEW080
BECMG 2004/2006 10006KT 5000 FU NSC
BECMG 2007/2009 12006KT 6000
BECMG 2012/2014 07003KT 4000 FU
BECMG 2016/2018 28006KT

VILK 19/02/2019 UTC

TAF COR VILK 191700Z 1918/2024 VRB02KT 2000 BR FEW100 BECMG 2001/2003
00000KT 1500 BR BECMG 2007/2009 13008KT 3500 HZ SCT020 BKN100
BECMG 2013/2015 VRB02KT 2000 BR HZ

VANP 19/02/2019 UTC

TAF VANP 191700Z 1918/2024 14005KT 2500 HZ NSC
BECMG 2006/2008 18008KT 4000 HZ SCT020 SCT100
BECMG 2012/2014 18005KT 2000 -RA HZ SCT020 BKN100
TEMPO 2010/2014 34010G20KT 1500 TSRA SCT020 FEW030CB BKN080

VRMM 19/02/2019 UTC

TAF VRMM 192300Z 2000/2106 04009KT 9000 FEW018 TEMPO
2000/2006 FEW019CB

VOHS 19/02/2019 UTC

TAF VOHS 192300Z 2000/2106 12005KT 5000 HZ NSC BECMG 2004/2006
14006KT 6000 FEW020 TEMPO 2000/2003 VRB03KT 3000 HZ BECMG 2014/2016
12005KT 5000 HZ FEW020 TEMPO 2100/2103 VRB03KT 3000 HZ

OPKC 19/02/2019 UTC

TAF OPKC 192130Z 2000/2106 23008G18KT 5000 FU SCT030 BKN100 TEMPO
2003/2007 18005G15KT 2000
-RADZ SCT030 BKN100 TEMPO 2011/2017 34020G30KT 1500 TSRA FEW025CB
SCT030 OVC080 TEMPO 2102/2106 26008KT 1500 BR SCT020 SCT100

OBBI 19/02/2019 UTC

TAF OBBI 192300Z 2000/2106 33017G27KT 9999 SCT025 BECMG 2015/2017
32012KT

OMAA 19/02/2019 UTC

TAF OMAA 192300Z 2000/2106 30014KT 8000 NSC
PROB30 TEMPO 2005/2010 30020KT 4000 BLDU
BECMG 2021/2023 21005KT

OMDB 19/02/2019 UTC

TAF OMDB 192251Z 2000/2106 28013KT 8000 FEW030
PROB30 TEMPO 2004/2012 30018G28KT
BECMG 2016/2018 18007KT

OOMS 19/02/2019 UTC

TAF OOMS 192300Z 2000/2106 30012KT 8000 SCT040 BECMG 2016/2018
24008KT

OMSJ 19/02/2019 UTC

TAF OMSJ 192251Z 2000/2106 28013KT 8000 FEW030
PROB30 TEMPO 2004/2012 30018G28KT 4000 BLDU
BECMG 2015/2017 18007KT

Malawi, Mauritius, South Africa, Zambia, Zimbabwe

The availability of aerodrome forecasts from overseas locations is dependent on the regular international exchange of data. Some locations may at times be absent. If this problem persists, please advise webav@bom.gov.au

 back to top

FIMP 19/02/2019 UTC

TAF FIMP 191740Z 1918/2100 04010KT 9999 SCT016

FMEE 19/02/2019 UTC

TAF FMEE 191700Z 1918/2024 14006KT 9999 FEW021 SCT060 TEMPO 1918/2005
4500 SHRA SCT026TCU BECMG 2005/2007 08012KT

FLKK

TAF not available.

FWKI 19/02/2019 UTC

TAF FWKI 191530Z 1918/2024 08007KT 9999 FEW022CB BKN025 BKN080 BECMG
2006/2008 15005KT SCT015 BKN080 BECMG 2010/2012 20003KT FEW025CB
BKN028 TEMPO 2012/2015 VRB15KT 8000 TSRA FEW025CB BKN028 BKN080
BECMG 2015/2017 09005KT 9999 FEW022CB SCT030 BKN080

FAOR 19/02/2019 UTC

TAF FAOR 192200Z 2000/2106 35009KT CAVOK
TX27/2013Z TN17/2004Z
BECMG 2006/2008 30014KT
BECMG 2010/2012 23008KT SCT040
BECMG 2013/2015 CAVOK
BECMG 2020/2022 VRB03KT
BECMG 2104/2106 15007KT

FVHA

TAF not available.

FAWK 19/02/2019 UTC

TAF FAWK 191800Z 1919/2006 NIL

FABL 19/02/2019 UTC

TAF FABL 192200Z 2000/2024 NIL

FALE 19/02/2019 UTC

TAF FALE 192200Z 2000/2106 01010KT 9999 SCT030
TX31/2011Z TN19/2003Z
BECMG 2009/2011 05015G25KT CAVOK
FM201700 19015KT 9999 SCT025

YPCC 19/02/2019 UTC

TAF YPCC 192311Z 2000/2024
12012KT 9999 SCT020
RMK
T 27 29 30 29 Q 1014 1015 1013 1012

United States (includes Hawaii) and Mexican emergency/alternates

The availability of aerodrome forecasts from overseas locations is dependent on the regular international exchange of data. Some locations may at times be absent. If this problem persists, please advise webav@bom.gov.au

 back to top

PHNL 19/02/2019 UTC

TAF PHNL 192105Z 1921/2024 13015KT P6SM -SHRA SCT020 BKN035 OVC100
FM200500 VRB06KT P6SM -SHRA FEW022 SCT045 BKN100
FM202100 18008KT P6SM FEW030 SCT050

PHLI 19/02/2019 UTC

TAF PHLI 192014Z 1920/2018 12006KT P6SM VCSH SCT015 BKN035
TEMPO 1920/1922 P6SM -SHRA BKN015 OVC035
FM200600 28005KT P6SM SCT025 BKN045

PHOG 19/02/2019 UTC

TAF AMD PHOG 192208Z 1922/2018 02011KT 3SM -SHRA SCT005 OVC018
TEMPO 1922/2001 34013G22KT 1SM SHRA BR BKN005
FM200500 34008KT P6SM -SHRA SCT020 BKN040
FM201400 12004KT P6SM FEW025 SCT040
AMD LTD TO VIS AND WIND 2009/2016

PHTO 19/02/2019 UTC

TAF PHTO 191723Z 1918/2018 28003KT 3SM -SHRA BR SCT008 OVC015
TEMPO 1918/1921 1SM SHRA BR OVC008
FM192100 14013KT 4SM -SHRA SCT012 BKN020 OVC035
FM200700 VRB05KT 6SM -SHRA BKN020 OVC035

PKMJ 19/02/2019 UTC

TAF PKMJ 191754Z 1918/2018 06020KT P6SM VCSH SCT015 SCT050 BKN120

KLAX 19/02/2019 UTC

TAF KLAX 192049Z 1921/2024 27010KT P6SM FEW040 FEW120
FM200400 VRB03KT P6SM SKC
FM201200 09005KT P6SM SKC
FM202000 26012KT P6SM SCT040

KONT 19/02/2019 UTC

TAF KONT 191730Z 1918/2024 04006KT P6SM SKC
FM192200 26008KT P6SM SKC
FM200300 VRB04KT P6SM SKC
FM202000 22008KT P6SM BKN100

KPMD 19/02/2019 UTC

TAF KPMD 191733Z 1918/2018 00000KT P6SM SKC
FM191900 04008KT P6SM SKC
FM200000 29008KT P6SM SKC
FM200600 23007KT P6SM SKC
FM201500 24017KT P6SM SKC

KSAN 19/02/2019 UTC

TAF KSAN 192055Z 1921/2024 24008KT P6SM SKC
FM200200 VRB03KT P6SM SKC
FM201700 18008KT P6SM BKN120
FM202000 26012KT P6SM VCSH BKN050

KLAS 19/02/2019 UTC

TAF AMD KLAS 192057Z 1921/2024 34011G18KT P6SM FEW100
FM200100 34008KT P6SM SCT200
FM200400 21006KT P6SM BKN200
FM200800 VRB05KT P6SM FEW120 BKN200
FM201800 09006KT P6SM FEW070 SCT120 BKN200
FM202200 20012G20KT P6SM SCT070 BKN100

KOAK 19/02/2019 UTC

TAF KOAK 191720Z 1918/2024 VRB05KT P6SM SKC
FM192100 32012KT P6SM FEW050 FEW250
FM200300 28008KT P6SM FEW040 SCT250
FM200900 30014G28KT P6SM FEW030 SCT040 SCT200
FM201500 32010G18KT P6SM VCSH SCT025 BKN035 BKN150
FM202000 31018G25KT P6SM SCT030 BKN050

KSFO 19/02/2019 UTC

TAF KSFO 192102Z 1921/2024 08005KT P6SM SKC
FM192200 30008KT P6SM FEW250
FM200000 28013KT P6SM FEW050 FEW250
FM200300 28009KT P6SM FEW040 SCT250
FM200900 28015G28KT P6SM SCT035 SCT200
FM201500 30010G18KT P6SM VCSH SCT025 BKN035 BKN150
FM202000 30024G30KT P6SM SCT030 BKN050

KSMF 19/02/2019 UTC

TAF KSMF 191730Z 1918/2018 34010KT P6SM SKC
FM200900 15006KT P6SM OVC060
FM201500 16006KT P6SM OVC025

KSCK 19/02/2019 UTC

TAF KSCK 191730Z 1918/2018 32007KT P6SM SKC
FM201200 19007KT P6SM OVC050

KFAT 19/02/2019 UTC

TAF KFAT 191723Z 1918/2018 VRB04KT P6SM FEW250
FM201600 11007KT P6SM BKN050 OVC100

KJFK 19/02/2019 UTC

TAF KJFK 192122Z 1921/2024 31010KT P6SM BKN250
FM200200 34007KT P6SM BKN250
FM200700 VRB04KT P6SM BKN150
FM201600 VRB04KT P6SM SCT030 BKN070
FM201800 15007KT 3SM -SN SCT010 BKN025 OVC060
FM202100 11007KT 1SM -SN OVC009

KPHL 19/02/2019 UTC

TAF KPHL 192124Z 1921/2024 32012KT P6SM SCT250
FM201200 VRB03KT P6SM OVC090
FM201500 10003KT 2SM -SN OVC040
FM201700 10004KT 1SM -SN OVC020
FM202100 11006KT 1/2SM SNPL OVC008
FM202300 11007KT 2SM -SNRA BR OVC006

KPIT 19/02/2019 UTC

TAF KPIT 192057Z 1921/2024 VRB04KT P6SM BKN250
FM200900 09005KT P6SM VCSH OVC025
FM201000 10005KT 3SM -SN OVC015
FM201200 10009KT 2SM -FZRASNPL BR OVC008
FM202100 13009KT 3SM -RA BR OVC008

KDEN 19/02/2019 UTC

TAF AMD KDEN 192100Z 1921/2024 32006KT 6SM -SN SCT015 OVC025
TEMPO 1922/2002 3SM -SN OVC015
FM200200 33008KT 5SM -SN SCT015 OVC035
FM201000 25006KT P6SM FEW020 SCT100
FM201500 19006KT P6SM FEW100
FM201800 26013G18KT P6SM FEW100

KMCI 19/02/2019 UTC

TAF KMCI 191736Z 1918/2018 09012G22KT P6SM SCT020 OVC100
FM200000 08012KT 3SM -SN BR OVC020
FM200200 09012KT 1SM -SN BR OVC008
FM200600 09011KT 2SM -FZRASN OVC005
FM201200 15007KT P6SM VCSH OVC008

KDFW 19/02/2019 UTC

TAF KDFW 192156Z 1922/2024 03006KT 4SM BR OVC007
TEMPO 1922/1924 2SM -RA BR
FM200300 34006KT 3SM BR OVC008
FM200900 30007KT P6SM OVC015
FM201500 25008KT P6SM SCT025 BKN200

KAUS 19/02/2019 UTC

TAF AMD KAUS 192106Z 1921/2024 02014KT P6SM -DZ OVC007
TEMPO 1921/1924 3SM SHRA BR BKN006
FM200000 36005KT 1SM BR OVC005
FM200600 34003KT 1/2SM FG BKN003
FM201300 33006KT 2SM BR OVC007
FM201500 34008KT P6SM OVC015

KELP 19/02/2019 UTC

TAF KELP 191739Z 1918/2018 20010KT P6SM FEW060 OVC100
TEMPO 1918/1921 4SM -SHRASN BKN030
FM192100 27020G30KT P6SM BKN050 OVC080
FM200500 28012G22KT P6SM FEW070
FM201300 24010KT P6SM FEW250

KIAH 19/02/2019 UTC

TAF KIAH 192059Z 1921/2024 01007KT 1 1/2SM -RA BR OVC004
FM192300 04009KT 5SM -DZ BR VCSH OVC006
FM200500 30008KT 4SM BR OVC006
FM201000 32012KT P6SM OVC009
FM201400 34010KT P6SM BKN015 BKN045
FM201700 34010KT P6SM FEW045 SCT250

KSAT 19/02/2019 UTC

TAF KSAT 192205Z 1922/2024 02006KT P6SM BKN008 OVC020
FM200400 35006KT P6SM OVC008
FM201000 32007KT P6SM BKN250

KTUS 19/02/2019 UTC

TAF KTUS 191720Z 1918/2018 29007KT P6SM SCT040
FM192000 29012G18KT P6SM SCT060
FM200200 26005KT P6SM SKC
FM200700 16005KT P6SM SKC

MMCU 19/02/2019 UTC

TAF AMD MMCU 191839Z 1919/2018 21035G45KT 4SM BLDU SKC
TEMPO 1920/1924 2SM BLDU
FM200200 35006KT 6SM HZ OVC140

MMHO 19/02/2019 UTC

TAF MMHO 191646Z 1918/2018 29010KT P6SM BKN240
FM200600 03008KT P6SM BKN200

MMLT 19/02/2019 UTC

TAF MMLT 191636Z 1918/2018 35015KT P6SM SCT040
BECMG 1920/1921 BKN200
FM200400 31010KT P6SM BKN200
FM201600 35010KT P6SM BKN200

MMSD 19/02/2019 UTC

TAF MMSD 191636Z 1918/2018 14010KT P6SM SCT025
BECMG 1923/1924 BKN025
FM200500 35005KT P6SM SCT025 SCT260
FM201700 13008KT P6SM BKN250

Papua New Guinea, Southwest Pacific

The availability of aerodrome forecasts from overseas locations is dependent on the regular international exchange of data. Some locations may at times be absent. If this problem persists, please advise webav@bom.gov.au

 back to top

NWWW 19/02/2019 UTC

TAF NWWW 192300Z 2000/2024 03010KT 9999 BKN030 TEMPO 2000/2024 05015G30KT 2000 SHRA BKN014 SCT018CB

NFFN 19/02/2019 UTC

TAF NFFN 191704Z 1918/2018
07006KT 9999 -SHRA SCT018 BKN045
PROB40 TEMPO 1918/1921 5000 TSRA FEW018CB
BECMG 1921/1923 33010KT
PROB30 TEMPO 2002/2006 3000 TSRA BKN015 FEW018CB
BECMG 2004/2006 08007KT
PROB40 TEMPO 2014/2018 3000 TSRA BKN015 FEW018CB

NFNA 19/02/2019 UTC

TAF AMD NFNA 192001Z 1920/2018
33007KT 9999 SCT020 SCT050 BKN100
PROB40 TEMPO 2001/2012 3000 TSRA BKN015 FEW018CB
PROB40 TEMPO 2012/2018 5000 SHRA BKN015

NFTF 19/02/2019 UTC

TAF NFTF 191705Z 1918/2018
14008KT 9999 SCT016
PROB30 TEMPO 2000/2006 5000 SHRA BKN015

NSTU 19/02/2019 UTC

TAF NSTU 191723Z 1918/2018 VRB04KT P6SM FEW020 SCT045 SCT120

NVVV 19/02/2019 UTC

TAF NVVV 192220Z 2000/2024 36010G20KT 9999 SCT020
PROB40 INTER 2003/2006 8000 SHRA BKN018 OVC040

NCRG 19/02/2019 UTC

TAF NCRG 191704Z 1918/2018
30007KT 9999 SCT018 BKN100
PROB30 TEMPO 1922/2006 5000 SHRA BKN015
PROB40 TEMPO 2006/2018 3000 TSRA BKN015 FEW018CB

NTAA 19/02/2019 UTC

TAF NTAA 191700Z 1918/2024 34015G25KT 9999 FEW016CB BKN020 BKN050
TEMPO 1918/2024 33020G35KT 2000 +SHRA FEW010 SCT014CB BKN017 PROB30
TEMPO 2000/2024 1000 +TSRA SCT008 BKN014CB OVC035

NTTG

TAF not available.

NTTO

TAF not available.

NSFA 19/02/2019 UTC

TAF NSFA 191705Z 1918/2018
17007KT 9999 SCT020 BKN100
PROB40 TEMPO 1920/1924 3000 TSRA BKN015 FEW018CB
PROB30 TEMPO 2000/2006 5000 TSRA FEW018CB

ANYN

TAF not available.

AGGH 19/02/2019 UTC

TAF AGGH 192310Z 2000/2024 27015G25KT 9999 SCT020

PROB40 INTER 2000/2005 5000 SHDZ SCT016 BKN028

T 31 32 29 28 Q 1007 1005 1005 1007

AGGM 19/02/2019 UTC

TAF AGGM 192310Z 2000/2024 25015KT 9999 SCT019

PROB40 INTER 2000/2005 5000 SHDZ SCT015 BKN028

Q 1008 1006 1006 1008

AGGN 19/02/2019 UTC

TAF AGGN 192310Z 2000/2024 24018KT 9999 SCT019

PROB40 INTER 2000/2005 5000 SHDZ SCT015 BKN028

Q 1009 1007 1007 1009

AYPY 19/02/2019 UTC

TAF AYPY 192150Z 2000/2024 34012KT 9999 SCT018 SCT140
FM200500 32015KT 9999 -SHRA SCT018 BKN140

AYNZ

TAF not available.

AYMD

TAF not available.

AYMH

TAF not available.

AYTA

TAF not available.

PKMJ 19/02/2019 UTC

TAF PKMJ 191754Z 1918/2018 06020KT P6SM VCSH SCT015 SCT050 BKN120

NGTA 19/02/2019 UTC

TAF NGTA 191707Z 1918/2018
08007KT 9999 -SHRA SCT008 BKN018 OVC100
TEMPO 1918/1920 3000 TSRA BKN015 FEW018CB
PROB40 TEMPO 1920/1924 3000 TSRA BKN015 FEW018CB
PROB30 TEMPO 2000/2012 3000 TSRA BKN015 FEW018CB

PTRO 19/02/2019 UTC

TAF PTRO 191754Z 1918/2018 05009KT P6SM VCSH SCT016 BKN300
FM200000 04012G20KT P6SM VCSH SCT016 SCT120

YLHI 19/02/2019 UTC

TAF AMD YLHI 191746Z 1918/2018
12010KT 9999 -SHRA SCT015 BKN025
FM200000 12014KT 9999 -SHRA SCT015 SCT025
FM200600 11014KT 9999 -DZ SCT010 BKN015
TEMPO 1918/2000 4000 SHRA BKN010
TEMPO 2008/2018 3000 DZ BKN010
RMK
T 24 26 27 28 Q 1008 1010 1010 1008

YSNF 19/02/2019 UTC

TAF AMD YSNF 191745Z 1918/2018
09014KT 8000 -DZ BKN005
TEMPO 1918/2018 2000 DZ OVC002
RMK FM191800 MOD TURB BLW 5000FT
T 23 25 26 26 Q 1009 1010 1010 1009

Indonesia, Timor Leste, Papua New Guinea

The availability of aerodrome forecasts from overseas locations is dependent on the regular international exchange of data. Some locations may at times be absent. If this problem persists, please advise webav@bom.gov.au

 back to top

WAAA 19/02/2019 UTC

TAF WAAA 192300Z 2000/2106 10005KT 9999 SCT018
BECMG 2001/2003 32010KT
TEMPO 2007/2009 5000 -TSRA FEW017CB
BECMG 2011/2013 10005KT 8000

WAMM 19/02/2019 UTC

TAF WAMM 192300Z 2000/2106 05008KT 9999 SCT020
PROB30 TEMPO 2002/2006 5000 -RA SCT018
BECMG 2010/2012 06003KT 9999 FEW022

WAMP

TAF not available.

WAJJ 19/02/2019 UTC

TAF WAJJ 192300Z 2000/2024 28014KT 9999 FEW013
TEMPO 2005/2009 FEW012CB FEW013
BECMG 2011/2013 26004KT

WAPP 19/02/2019 UTC

TAF WAPP 191700Z 1918/2018 35006KT 9999 SCT020

WABB 19/02/2019 UTC

TAF WABB 192300Z 2000/2106 26007KT 9999 SCT018
TEMPO 2004/2008 5000 RA FEW017CB
BECMG 2010/2012 32005KT

WPDL 19/02/2019 UTC

TAF WPDL 191717Z 1918/2006
15006KT 9999 SCT025
FM200000 32010KT 9999 SCT030
PROB30 TEMPO 2005/2006 VRB20G35KT 1000 TSRA BKN010 SCT030CB
RMK
T 26 26 29 30 Q 1013 1013 1015 1015

WATT 19/02/2019 UTC

TAF WATT 192300Z 2000/2024 22003KT 9999 SCT016
PROB40 TEMPO 2003/2008 32006KT 5000 -RA FEW015CB BKN015
BECMG 2010/2011 20003KT

WIII 19/02/2019 UTC

TAF WIII 192300Z 2000/2106 33010KT 9999 FEW020

WIHH 19/02/2019 UTC

TAF WIHH 192300Z 2000/2100 12008KT 6000 SCT020
TEMPO 2007/2010 02010KT 4000 -TSRA FEW016CB BKN017
BECMG 2012/2014 18005KT 5000 HZ FEW021

WIMM 19/02/2019 UTC

TAF WIMM 192300Z 2000/2100 21004KT 5000 HZ SCT017
BECMG 2002/2004 03010KT 9999 NSW
BECMG 2010/2012 VRB05KT 4500 HZ

WARR 19/02/2019 UTC

TAF WARR 192300Z 2000/2100 12005KT 9999 FEW020
TEMPO 2005/2009 34015KT 3000 TSRA SCT018CB
BECMG 2015/2017 27005KT 4000 BR

WADD 19/02/2019 UTC

TAF WADD 192300Z 2000/2100 VRB05KT 9999 SCT016
TEMPO 2006/2009 6000 -TSRA FEW015CB BKN015
TEMPO 2015/2018 5000 RA BKN015

AYPY 19/02/2019 UTC

TAF AYPY 192150Z 2000/2024 34012KT 9999 SCT018 SCT140
FM200500 32015KT 9999 -SHRA SCT018 BKN140

AYNZ

TAF not available.

AYMH

TAF not available.

AYMD

TAF not available.

AYHK

TAF not available.

AYTK

TAF not available.

AYVN

TAF not available.

AYWK

TAF not available.

AYGA

TAF not available.

AYDU

TAF not available.

AYMS

TAF not available.

AYRB

TAF not available.

AYTB

TAF not available.

AYKI

TAF not available.

AYKT

TAF not available.

AYBK

TAF not available.

AYKM

TAF not available.

AYKY

TAF not available.

AYMO

TAF not available.

AYKV

TAF not available.

Accessing this Service

By entering this site, you acknowledge that this information is produced solely for use by the aviation industry, and you are aware that any information for the purposes of flight planning should be obtained from Airservices Australia.